Time;durP1;ratioP1;P1;durP2;ratioP2;P2;SDS_P1;SDS_P2;PMS_P1;PMS_P2;Temp;Humidity;BMP_temperature;BMP_pressure;BME280_temperature;BME280_humidity;BME280_pressure;Samples;Min_cycle;Max_cycle;Signal;HPM_P1;HPM_P2
2023/01/19 00:01:26;;;;;;;14.40;8.87;;;0.50;93.10;;;;;;5052449;28;20209;-90
2023/01/19 00:03:53;;;;;;;14.60;9.53;;;0.50;93.30;;;;;;5036259;28;20240;-90
2023/01/19 00:06:20;;;;;;;12.50;8.40;;;0.50;93.80;;;;;;5040840;28;20209;-90
2023/01/19 00:08:53;;;;;;;13.60;8.50;;;0.50;93.70;;;;;;5052797;28;20205;-90
2023/01/19 00:11:20;;;;;;;12.77;8.73;;;0.50;94.10;;;;;;5037546;28;20251;-90
2023/01/19 00:13:52;;;;;;;12.83;8.67;;;0.50;94.10;;;;;;5042724;28;20659;-93
2023/01/19 00:16:21;;;;;;;16.87;8.70;;;0.50;93.70;;;;;;5047233;28;20297;-92
2023/01/19 00:18:50;;;;;;;12.87;8.70;;;0.50;93.70;;;;;;5051853;28;20209;-90
2023/01/19 00:21:17;;;;;;;12.77;8.90;;;0.50;93.80;;;;;;5048160;28;20263;-90
2023/01/19 00:23:47;;;;;;;15.03;9.43;;;0.50;93.50;;;;;;5039748;28;20235;-89
2023/01/19 00:26:16;;;;;;;16.33;8.67;;;0.60;93.20;;;;;;5038987;28;20206;-89
2023/01/19 00:28:43;;;;;;;14.10;8.43;;;0.60;93.60;;;;;;5039125;28;20213;-90
2023/01/19 00:31:14;;;;;;;14.90;9.37;;;0.60;93.30;;;;;;5052785;28;20198;-90
2023/01/19 00:33:41;;;;;;;14.57;8.97;;;0.60;93.20;;;;;;5049564;28;20650;-89
2023/01/19 00:36:09;;;;;;;12.37;8.03;;;0.60;93.40;;;;;;5051623;28;20212;-91
2023/01/19 00:38:37;;;;;;;11.07;7.50;;;0.50;93.10;;;;;;5051264;28;20200;-90
2023/01/19 00:41:04;;;;;;;13.33;8.20;;;0.60;93.10;;;;;;5050052;28;20218;-89
2023/01/19 00:43:32;;;;;;;10.40;7.10;;;0.70;92.60;;;;;;5045000;28;20206;-90
2023/01/19 00:45:58;;;;;;;14.73;8.03;;;0.60;92.80;;;;;;5045347;28;20233;-90
2023/01/19 00:48:25;;;;;;;12.37;7.67;;;0.70;92.50;;;;;;5051870;28;20205;-90
2023/01/19 00:50:52;;;;;;;14.20;8.03;;;0.60;92.40;;;;;;5044864;28;20212;-90
2023/01/19 00:53:19;;;;;;;13.07;7.60;;;0.60;92.60;;;;;;5053561;28;20227;-90
2023/01/19 00:55:45;;;;;;;13.07;7.83;;;0.60;92.80;;;;;;5053422;28;20212;-89
2023/01/19 00:58:12;;;;;;;12.43;8.33;;;0.50;92.80;;;;;;5051410;28;20194;-89
2023/01/19 01:00:44;;;;;;;12.93;7.77;;;0.50;92.90;;;;;;5048416;28;20240;-90
2023/01/19 01:03:15;;;;;;;12.93;8.67;;;0.50;93.30;;;;;;5050964;28;20209;-91
2023/01/19 01:05:42;;;;;;;10.83;8.20;;;0.50;93.40;;;;;;5056674;28;20204;-91
2023/01/19 01:08:16;;;;;;;11.97;8.80;;;0.50;93.60;;;;;;5052278;28;20201;-89
2023/01/19 01:10:44;;;;;;;13.53;8.37;;;0.50;94.10;;;;;;5050460;28;20220;-90
2023/01/19 01:13:10;;;;;;;12.13;8.30;;;0.50;94.10;;;;;;5049333;28;20201;-90
2023/01/19 01:15:37;;;;;;;14.23;9.30;;;0.50;94.10;;;;;;5036678;28;20210;-89
2023/01/19 01:20:48;;;;;;;13.17;8.57;;;0.40;94.40;;;;;;5043615;28;20573;-89
2023/01/19 01:23:15;;;;;;;13.23;9.20;;;0.50;94.40;;;;;;5047679;28;20229;-89
2023/01/19 01:25:42;;;;;;;11.37;8.90;;;0.50;94.60;;;;;;5050644;28;20227;-91
2023/01/19 01:28:10;;;;;;;12.33;8.30;;;0.40;95.40;;;;;;5044337;28;20207;-89
2023/01/19 01:30:39;;;;;;;13.90;8.23;;;0.60;94.80;;;;;;5032459;28;20206;-90
2023/01/19 01:33:13;;;;;;;13.00;8.43;;;0.50;94.70;;;;;;5051834;28;20201;-90
2023/01/19 01:35:40;;;;;;;10.83;7.63;;;0.40;94.80;;;;;;5046804;28;20215;-91
2023/01/19 01:38:07;;;;;;;11.70;8.07;;;0.30;95.30;;;;;;5040398;28;20206;-90
2023/01/19 01:40:34;;;;;;;12.97;8.33;;;0.30;95.10;;;;;;5049913;28;20264;-90
2023/01/19 01:43:01;;;;;;;10.53;7.57;;;0.20;95.20;;;;;;5043502;28;20203;-90
2023/01/19 01:45:34;;;;;;;10.73;7.73;;;0.20;95.40;;;;;;5046620;28;20551;-90
2023/01/19 01:48:06;;;;;;;15.10;8.53;;;0.10;95.40;;;;;;5048129;28;20194;-89
2023/01/19 01:50:38;;;;;;;11.73;8.17;;;0.10;95.50;;;;;;5033322;28;20205;-90
2023/01/19 01:53:11;;;;;;;11.77;8.17;;;0.10;95.80;;;;;;5050468;28;20199;-89
2023/01/19 01:55:49;;;;;;;13.27;8.03;;;0.10;95.90;;;;;;5048406;28;20205;-89
2023/01/19 01:58:16;;;;;;;10.23;7.73;;;0.20;95.90;;;;;;5044159;28;20660;-89
2023/01/19 02:03:28;;;;;;;11.13;7.90;;;0.10;95.50;;;;;;5028116;28;20287;-88
2023/01/19 02:06:00;;;;;;;12.13;7.77;;;0.00;95.70;;;;;;5051631;28;20201;-89
2023/01/19 02:14:04;;;;;;;11.13;7.27;;;0.10;95.90;;;;;;5040598;28;20316;-90
2023/01/19 02:16:32;;;;;;;11.73;8.17;;;0.10;95.50;;;;;;5050481;28;20205;-89
2023/01/19 02:19:00;;;;;;;15.10;8.43;;;0.10;95.50;;;;;;5054928;28;20209;-89
2023/01/19 02:21:36;;;;;;;11.70;7.87;;;0.10;95.50;;;;;;5054114;28;20237;-89
2023/01/19 02:24:06;;;;;;;14.90;8.17;;;0.10;95.70;;;;;;5056770;28;20226;-89
2023/01/19 02:26:38;;;;;;;11.60;7.60;;;0.00;95.50;;;;;;5043313;28;20206;-89
2023/01/19 02:29:07;;;;;;;9.90;7.43;;;0.00;95.70;;;;;;5045743;28;20205;-89
2023/01/19 02:31:37;;;;;;;12.73;7.87;;;0.00;95.50;;;;;;5055962;28;20201;-90
2023/01/19 02:34:06;;;;;;;10.00;7.33;;;0.10;95.40;;;;;;5037348;28;20209;-88
2023/01/19 02:36:38;;;;;;;13.73;7.60;;;0.00;95.20;;;;;;5040011;28;20201;-89
2023/01/19 02:39:09;;;;;;;10.20;6.27;;;0.00;95.50;;;;;;5061440;28;20201;-89
2023/01/19 02:41:41;;;;;;;12.60;6.67;;;0.00;95.30;;;;;;5064904;28;20240;-88
2023/01/19 02:44:09;;;;;;;9.20;5.37;;;0.00;95.10;;;;;;5059147;28;20205;-89
2023/01/19 02:46:50;;;;;;;8.87;5.10;;;-0.10;94.80;;;;;;5057054;28;20208;-89
2023/01/19 02:49:16;;;;;;;9.40;5.40;;;-0.10;95.00;;;;;;5052982;28;20202;-88
2023/01/19 02:51:44;;;;;;;6.93;5.30;;;-0.20;94.70;;;;;;5055523;28;20208;-90
2023/01/19 02:54:36;;;;;;;8.23;4.97;;;-0.10;95.00;;;;;;5033682;28;20255;-90
2023/01/19 02:57:33;;;;;;;6.50;4.63;;;-0.10;94.30;;;;;;5057751;28;20201;-89
2023/01/19 03:00:12;;;;;;;8.13;4.80;;;-0.10;94.40;;;;;;5036246;28;20244;-88
2023/01/19 03:02:49;;;;;;;9.97;4.80;;;-0.20;94.30;;;;;;5056961;28;20649;-89
2023/01/19 03:05:33;;;;;;;9.93;4.90;;;-0.20;94.30;;;;;;5057307;28;20251;-89
2023/01/19 03:11:13;;;;;;;7.73;5.70;;;-0.20;94.00;;;;;;5044969;28;20219;-90
2023/01/19 03:13:45;;;;;;;8.17;5.27;;;-0.20;94.90;;;;;;5045577;28;20218;-90
2023/01/19 03:16:19;;;;;;;6.57;4.63;;;-0.20;95.00;;;;;;5048829;28;20584;-88
2023/01/19 03:18:51;;;;;;;8.40;5.27;;;-0.20;94.90;;;;;;5057016;28;20205;-89
2023/01/19 03:21:19;;;;;;;5.60;4.60;;;-0.20;94.60;;;;;;5056618;28;20217;-89
2023/01/19 03:23:48;;;;;;;8.27;5.40;;;-0.20;94.30;;;;;;5037267;22;20580;-89
2023/01/19 03:26:21;;;;;;;7.17;4.93;;;-0.20;94.30;;;;;;5016047;28;20211;-90
2023/01/19 03:28:49;;;;;;;7.90;4.87;;;-0.20;94.40;;;;;;5016502;28;20230;-89
2023/01/19 03:31:19;;;;;;;9.87;5.70;;;-0.30;94.40;;;;;;5016429;28;20655;-90
2023/01/19 03:33:50;;;;;;;7.00;5.27;;;-0.30;94.60;;;;;;5018036;28;20198;-90
2023/01/19 03:36:33;;;;;;;7.30;5.53;;;-0.30;94.60;;;;;;5023708;28;20206;-89
2023/01/19 03:39:02;;;;;;;8.60;6.13;;;-0.30;94.90;;;;;;5023064;28;20212;-90
2023/01/19 03:44:14;;;;;;;10.03;6.10;;;-0.40;95.00;;;;;;5013490;28;20207;-89
2023/01/19 03:46:42;;;;;;;8.80;6.13;;;-0.30;95.00;;;;;;5016138;28;20191;-90
2023/01/19 03:49:10;;;;;;;9.63;6.40;;;-0.30;94.90;;;;;;5015873;28;20226;-90
2023/01/19 03:55:29;;;;;;;10.70;6.80;;;-0.40;95.10;;;;;;5017084;28;20558;-90
2023/01/19 03:57:57;;;;;;;9.00;6.30;;;-0.50;95.20;;;;;;5019942;28;20678;-89
2023/01/19 04:00:27;;;;;;;8.87;6.60;;;-0.40;95.30;;;;;;5017507;28;20540;-90
2023/01/19 04:02:55;;;;;;;10.50;6.33;;;-0.40;94.90;;;;;;5017619;28;20199;-90
2023/01/19 04:05:36;;;;;;;9.20;6.87;;;-0.40;94.70;;;;;;4988643;28;20292;-89
2023/01/19 04:08:03;;;;;;;9.80;7.53;;;-0.40;94.70;;;;;;5007554;28;20743;-90
2023/01/19 04:10:30;;;;;;;12.87;7.20;;;-0.50;94.70;;;;;;5015819;28;20197;-90
2023/01/19 05:14:16;;;;;;;12.70;8.40;;;-0.80;95.00;;;;;;5009659;28;20263;-90
2023/01/19 05:17:37;;;;;;;13.63;8.87;;;-1.00;95.50;;;;;;5016549;28;20209;-90
2023/01/19 05:20:05;;;;;;;14.83;8.93;;;-1.10;95.90;;;;;;5007444;28;20199;-90
2023/01/19 05:45:45;;;;;;;14.70;9.80;;;-0.80;95.70;;;;;;5038994;28;20219;-89
2023/01/19 05:48:12;;;;;;;14.27;10.30;;;-0.90;95.70;;;;;;5054457;28;20202;-90
2023/01/19 05:50:39;;;;;;;13.63;9.63;;;-0.80;95.80;;;;;;5040270;28;20293;-90
2023/01/19 05:53:06;;;;;;;12.73;8.80;;;-0.90;95.50;;;;;;5061757;28;20208;-91
2023/01/19 05:55:35;;;;;;;14.63;9.50;;;-0.90;95.50;;;;;;5060226;28;20192;-91
2023/01/19 05:58:02;;;;;;;17.17;10.20;;;-0.90;95.40;;;;;;5052856;28;20248;-91
2023/01/19 06:00:29;;;;;;;14.07;9.43;;;-1.00;95.60;;;;;;5054833;28;20225;-91
2023/01/19 06:02:59;;;;;;;15.70;9.20;;;-1.00;95.70;;;;;;5051698;28;20199;-90
2023/01/19 06:05:26;;;;;;;13.33;9.70;;;-1.00;95.90;;;;;;5059363;28;20546;-90
2023/01/19 06:07:56;;;;;;;16.37;9.53;;;-1.00;96.00;;;;;;5055480;28;20216;-89
2023/01/19 06:10:59;;;;;;;14.67;10.30;;;-1.00;96.20;;;;;;5045394;28;20199;-90
2023/01/19 06:13:34;;;;;;;15.73;9.60;;;-0.90;96.20;;;;;;5060824;28;20225;-90
2023/01/19 06:16:02;;;;;;;16.83;10.20;;;-0.80;95.80;;;;;;5049317;28;20668;-90
2023/01/19 06:18:31;;;;;;;18.43;9.93;;;-0.80;95.70;;;;;;5057116;28;20645;-87
2023/01/19 06:21:03;;;;;;;17.30;9.70;;;-0.80;95.70;;;;;;5047137;28;20218;-90
2023/01/19 06:23:31;;;;;;;14.03;9.53;;;-0.80;95.50;;;;;;5054630;28;20227;-88
2023/01/19 06:32:38;;;;;;;15.57;10.70;;;-0.90;95.60;;;;;;5020187;28;20201;-90
2023/01/19 06:35:30;;;;;;;14.60;10.20;;;-0.90;95.30;;;;;;5009950;28;20222;-89
2023/01/19 06:37:57;;;;;;;13.47;10.20;;;-1.00;95.50;;;;;;5370084;22;20250;-87
2023/01/19 06:40:24;;;;;;;14.57;9.87;;;-1.00;95.30;;;;;;4982593;28;20227;-91
2023/01/19 06:42:51;;;;;;;13.27;9.87;;;-0.90;95.20;;;;;;4991655;28;20207;-92
2023/01/19 06:45:18;;;;;;;16.73;10.63;;;-0.80;94.60;;;;;;4998737;28;20417;-89
2023/01/19 06:47:47;;;;;;;19.47;10.40;;;-0.90;94.80;;;;;;5001186;28;20216;-88
2023/01/19 07:03:55;;;;;;;14.80;9.77;;;-0.80;94.20;;;;;;4976027;28;20279;-89
2023/01/19 07:06:22;;;;;;;15.87;10.20;;;-0.70;93.90;;;;;;4971329;28;20213;-89
2023/01/19 07:12:56;;;;;;;15.53;9.70;;;-0.70;94.10;;;;;;5001768;28;20178;-91
2023/01/19 07:15:23;;;;;;;14.17;9.90;;;-0.70;93.90;;;;;;4997958;28;20212;-92
2023/01/19 07:17:51;;;;;;;18.67;10.30;;;-0.60;93.80;;;;;;4987698;28;20235;-93
2023/01/19 07:20:18;;;;;;;13.40;9.70;;;-0.50;93.60;;;;;;4992592;28;20227;-92
2023/01/19 07:25:21;;;;;;;14.97;10.17;;;-0.60;93.40;;;;;;5576386;22;20257;-90
2023/01/19 07:27:48;;;;;;;16.10;10.17;;;-0.60;93.30;;;;;;5070156;23;20230;-89
2023/01/19 07:30:15;;;;;;;15.43;9.57;;;-0.70;93.00;;;;;;5067764;28;20204;-90
2023/01/19 07:32:44;;;;;;;12.90;9.03;;;-0.70;92.80;;;;;;5083734;28;20230;-91
2023/01/19 07:37:48;;;;;;;14.03;10.23;;;-0.70;92.60;;;;;;5977071;22;20221;-93
2023/01/19 07:58:11;;;;;;;13.90;9.90;;;-0.60;91.80;;;;;;5833521;22;20194;-92
2023/01/19 08:03:13;;;;;;;15.20;9.00;;;-0.50;90.80;;;;;;5910654;23;20224;-91
2023/01/19 08:05:40;;;;;;;12.63;9.23;;;-0.50;90.90;;;;;;5130661;22;20241;-89
2023/01/19 08:28:48;;;;;;;12.73;9.00;;;-0.10;85.80;;;;;;5025952;28;20218;-92
2023/01/19 08:31:17;;;;;;;12.23;7.90;;;-0.10;85.10;;;;;;5033851;28;20214;-91
2023/01/19 08:33:44;;;;;;;12.70;8.63;;;-0.10;85.20;;;;;;5036432;28;20209;-91
2023/01/19 08:36:11;;;;;;;11.20;8.20;;;0.00;85.80;;;;;;5029464;28;20264;-90
2023/01/19 08:38:40;;;;;;;12.87;8.57;;;0.10;85.90;;;;;;5020599;28;20590;-90
2023/01/19 08:41:06;;;;;;;12.23;8.43;;;0.20;84.70;;;;;;5025754;28;20222;-91
2023/01/19 08:43:33;;;;;;;14.07;8.97;;;0.30;83.50;;;;;;5023850;28;20210;-91
2023/01/19 08:46:02;;;;;;;11.93;8.80;;;0.30;83.30;;;;;;5032530;28;20204;-90
2023/01/19 08:48:30;;;;;;;14.43;8.50;;;0.20;83.70;;;;;;5025492;28;20214;-90
2023/01/19 08:50:57;;;;;;;15.67;8.80;;;0.10;84.00;;;;;;5038103;28;20199;-90
2023/01/19 08:56:01;;;;;;;13.87;8.10;;;0.30;83.20;;;;;;5175808;22;20249;-88
2023/01/19 08:58:28;;;;;;;10.47;8.10;;;0.40;81.50;;;;;;5057058;28;20182;-91
2023/01/19 09:00:59;;;;;;;13.50;7.83;;;0.50;81.20;;;;;;5059883;28;20226;-91
2023/01/19 09:03:28;;;;;;;11.00;8.23;;;0.50;79.50;;;;;;5067537;28;20202;-93
2023/01/19 09:42:23;;;;;;;10.30;7.87;;;1.90;69.20;;;;;;5040504;28;20331;-93
2023/01/19 09:44:52;;;;;;;10.40;7.73;;;2.20;59.40;;;;;;5038569;28;20210;-92
2023/01/19 09:47:23;;;;;;;10.33;7.10;;;2.60;54.60;;;;;;5041584;28;20218;-91
2023/01/19 09:52:41;;;;;;;10.63;7.30;;;2.40;54.00;;;;;;5148402;22;20237;-91
2023/01/19 09:55:39;;;;;;;9.73;7.10;;;2.40;53.20;;;;;;5211448;23;20265;31
2023/01/19 09:58:15;;;;;;;9.73;7.30;;;2.40;55.10;;;;;;4955893;28;20216;-92
2023/01/19 10:00:43;;;;;;;9.37;6.87;;;2.30;55.80;;;;;;4966155;28;20217;-91
2023/01/19 10:03:16;;;;;;;9.70;7.07;;;2.30;52.70;;;;;;4960964;28;20209;-91
2023/01/19 10:05:47;;;;;;;10.17;7.50;;;2.30;53.90;;;;;;4967500;28;20224;-91
2023/01/19 10:08:23;;;;;;;8.93;6.93;;;2.30;55.40;;;;;;4965353;28;20279;-94
2023/01/19 10:10:54;;;;;;;11.00;7.07;;;2.30;53.90;;;;;;4963596;28;20224;-93
2023/01/19 10:17:01;;;;;;;11.90;7.03;;;2.40;54.40;;;;;;4964401;28;20216;-91
2023/01/19 10:19:53;;;;;;;9.97;6.93;;;2.50;50.00;;;;;;4952903;28;20241;-92
2023/01/19 10:22:23;;;;;;;7.57;6.37;;;2.50;53.40;;;;;;4965403;28;20223;-93
2023/01/19 10:24:53;;;;;;;9.33;6.93;;;2.40;51.90;;;;;;4962658;28;20195;-94
2023/01/19 10:38:37;;;;;;;8.57;6.67;;;2.50;48.90;;;;;;5135472;22;20238;-93
2023/01/19 10:41:15;;;;;;;7.70;6.20;;;2.60;51.70;;;;;;5053193;28;20191;-90
2023/01/19 10:43:44;;;;;;;8.17;6.60;;;2.50;50.20;;;;;;5110742;23;20229;-92
2023/01/19 10:46:25;;;;;;;7.93;6.17;;;2.20;50.30;;;;;;5060262;28;20202;-91
2023/01/19 10:54:31;;;;;;;6.50;5.37;;;2.30;53.90;;;;;;5019947;28;20185;-92
2023/01/19 10:57:02;;;;;;;7.03;5.30;;;2.50;52.00;;;;;;5057195;28;20194;-93
2023/01/19 10:59:42;;;;;;;6.23;5.50;;;2.70;47.80;;;;;;5070425;28;20181;-96
2023/01/19 11:02:19;;;;;;;7.73;4.97;;;2.90;41.80;;;;;;5036655;28;20248;-91
2023/01/19 11:04:48;;;;;;;7.60;4.93;;;2.90;42.60;;;;;;5084740;23;20286;-93
2023/01/19 11:10:24;;;;;;;5.37;4.67;;;3.20;40.20;;;;;;5039098;28;20268;-93
2023/01/19 11:28:59;;;;;;;5.17;4.27;;;2.70;39.20;;;;;;5395623;23;20237;-94
2023/01/19 11:57:45;;;;;;;6.13;3.37;;;2.70;38.90;;;;;;5879984;22;20231;-90
2023/01/19 12:07:58;;;;;;;7.27;3.80;;;2.80;35.00;;;;;;5047175;23;20225;-89
2023/01/19 12:26:06;;;;;;;7.43;3.50;;;2.50;34.50;;;;;;5014124;28;20227;-88
2023/01/19 12:28:37;;;;;;;5.77;3.57;;;2.60;35.10;;;;;;5010040;28;20210;-89
2023/01/19 12:31:09;;;;;;;5.90;3.87;;;2.70;35.40;;;;;;4998388;28;20207;-91
2023/01/19 12:33:44;;;;;;;7.53;4.30;;;2.50;36.60;;;;;;5073010;22;20332;-90
2023/01/19 12:36:35;;;;;;;5.97;4.07;;;2.40;37.00;;;;;;4998307;28;20203;-92
2023/01/19 12:39:04;;;;;;;8.43;4.10;;;2.40;38.10;;;;;;5473704;23;20238;-90
2023/01/19 12:41:34;;;;;;;5.70;3.13;;;2.40;39.60;;;;;;5009398;28;20209;-89
2023/01/19 12:44:33;;;;;;;5.07;2.60;;;2.50;38.40;;;;;;5024207;28;20211;-85
2023/01/19 12:47:18;;;;;;;6.30;2.43;;;2.40;38.00;;;;;;5019420;28;20203;-87
2023/01/19 12:49:48;;;;;;;5.27;2.60;;;2.40;37.00;;;;;;5017960;28;20217;-88
2023/01/19 12:52:29;;;;;;;4.47;2.40;;;2.40;36.70;;;;;;5022226;28;20206;-86
2023/01/19 12:55:03;;;;;;;7.43;3.20;;;2.20;36.60;;;;;;5005149;28;20218;-86
2023/01/19 12:57:35;;;;;;;4.00;3.03;;;2.20;39.40;;;;;;5001825;28;20274;-85
2023/01/19 13:00:26;;;;;;;5.60;2.83;;;2.10;38.80;;;;;;5029783;28;20190;-89
2023/01/19 13:02:55;;;;;;;7.07;3.43;;;2.10;38.20;;;;;;5023161;28;20222;-88
2023/01/19 13:08:49;;;;;;;4.10;3.30;;;2.20;38.30;;;;;;5008579;28;20202;-89
2023/01/19 13:14:35;;;;;;;5.90;3.67;;;2.10;41.90;;;;;;5024032;28;20202;-91
2023/01/19 13:17:29;;;;;;;5.90;3.50;;;2.10;43.10;;;;;;5026390;28;20201;-90
2023/01/19 13:20:23;;;;;;;5.47;3.40;;;2.00;41.90;;;;;;5031143;28;20672;-90
2023/01/19 13:23:25;;;;;;;5.03;3.50;;;2.20;39.80;;;;;;5027440;28;20230;-91
2023/01/19 13:26:03;;;;;;;5.30;3.73;;;2.20;39.20;;;;;;5023542;28;20206;-87
2023/01/19 13:28:39;;;;;;;4.97;3.73;;;2.30;38.00;;;;;;5033483;28;20270;-88
2023/01/19 13:31:08;;;;;;;5.73;3.47;;;2.20;42.00;;;;;;5021089;28;20270;-90
2023/01/19 13:33:44;;;;;;;5.20;3.57;;;2.20;42.00;;;;;;5034986;28;20203;-88
2023/01/19 13:36:30;;;;;;;9.97;4.10;;;2.20;42.00;;;;;;5027298;28;20195;-90
2023/01/19 13:39:02;;;;;;;5.27;3.53;;;2.20;42.00;;;;;;5031186;28;20292;-91
2023/01/19 13:41:34;;;;;;;5.33;3.70;;;2.30;41.40;;;;;;5027526;28;20601;-90
2023/01/19 13:44:08;;;;;;;5.00;3.60;;;2.30;39.50;;;;;;5029898;28;20241;-89
2023/01/19 13:46:37;;;;;;;5.30;3.60;;;2.30;42.10;;;;;;5026798;28;20233;-88
2023/01/19 13:49:14;;;;;;;8.33;3.80;;;2.40;42.20;;;;;;5023428;28;20205;-89
2023/01/19 13:51:41;;;;;;;7.70;3.80;;;2.40;41.00;;;;;;5036959;28;20198;-91
2023/01/19 13:54:15;;;;;;;5.50;3.93;;;2.30;42.10;;;;;;5028942;28;20209;-87
2023/01/19 13:56:48;;;;;;;5.50;4.07;;;2.20;39.80;;;;;;5025068;28;20604;-88
2023/01/19 13:59:17;;;;;;;7.60;4.67;;;2.30;42.10;;;;;;5025756;28;20927;-88
2023/01/19 14:01:45;;;;;;;6.00;3.93;;;2.30;39.70;;;;;;5019357;28;20207;-87
2023/01/19 14:04:28;;;;;;;5.03;4.20;;;2.30;38.40;;;;;;5024659;28;20199;-88
2023/01/19 14:06:58;;;;;;;4.80;3.63;;;2.40;39.00;;;;;;5021871;28;20210;-89
2023/01/19 14:09:25;;;;;;;4.87;3.97;;;2.40;39.30;;;;;;5021100;28;20317;-88
2023/01/19 14:12:07;;;;;;;9.50;4.17;;;2.20;41.50;;;;;;5027173;28;20202;-87
2023/01/19 14:14:36;;;;;;;8.57;4.37;;;2.20;42.00;;;;;;5028352;28;20195;-86
2023/01/19 14:17:03;;;;;;;6.00;4.13;;;2.10;41.90;;;;;;5029235;28;20209;-89
2023/01/19 14:19:46;;;;;;;6.03;3.67;;;2.10;44.00;;;;;;5027028;28;20195;-90
2023/01/19 14:22:13;;;;;;;5.20;3.70;;;2.20;42.00;;;;;;5025668;28;20224;-88
2023/01/19 14:24:40;;;;;;;6.50;3.80;;;2.30;41.40;;;;;;5026045;28;20206;-87
2023/01/19 14:30:20;;;;;;;5.83;3.50;;;2.20;42.00;;;;;;5033763;28;20248;-90
2023/01/19 14:32:47;;;;;;;4.43;3.30;;;2.30;39.60;;;;;;5032911;28;20633;-87
2023/01/19 14:35:23;;;;;;;5.97;3.40;;;2.30;37.50;;;;;;5021612;28;20206;-88
2023/01/19 14:37:51;;;;;;;5.17;3.03;;;2.30;36.70;;;;;;5038077;28;20200;-90
2023/01/19 14:40:23;;;;;;;5.20;3.20;;;2.30;37.60;;;;;;5032416;28;20317;-87
2023/01/19 14:42:53;;;;;;;5.73;3.40;;;2.20;37.80;;;;;;5039428;28;20342;-89
2023/01/19 14:45:25;;;;;;;6.07;3.00;;;2.10;39.10;;;;;;5043248;28;20266;-88
2023/01/19 14:47:58;;;;;;;4.77;3.13;;;2.00;37.40;;;;;;5012215;28;20230;-88
2023/01/19 14:50:28;;;;;;;8.27;3.30;;;2.00;38.10;;;;;;5027684;28;20199;-90
2023/01/19 14:52:59;;;;;;;10.10;3.40;;;1.90;39.10;;;;;;5030679;28;20203;-88
2023/01/19 14:55:36;;;;;;;5.73;3.50;;;1.90;38.30;;;;;;5041450;23;20250;-92
2023/01/19 14:58:08;;;;;;;6.10;3.10;;;1.80;38.30;;;;;;5002698;28;20203;-90
2023/01/19 15:00:36;;;;;;;6.10;3.40;;;1.70;39.40;;;;;;5032817;28;20199;-88
2023/01/19 15:03:04;;;;;;;4.03;3.10;;;1.80;39.80;;;;;;5176177;23;20239;-91
2023/01/19 15:05:31;;;;;;;7.10;3.47;;;1.70;39.60;;;;;;5029438;28;20198;-88
2023/01/19 15:07:58;;;;;;;4.67;3.20;;;1.70;40.00;;;;;;5037010;28;20209;-89
2023/01/19 15:10:26;;;;;;;4.30;3.00;;;1.70;41.50;;;;;;5029090;28;20202;-89
2023/01/19 15:12:55;;;;;;;7.27;3.30;;;1.70;39.30;;;;;;5025523;28;20203;-87
2023/01/19 15:15:27;;;;;;;7.63;3.50;;;1.70;40.40;;;;;;5015754;28;20206;-88
2023/01/19 15:17:56;;;;;;;7.93;4.23;;;1.70;39.50;;;;;;5026634;28;20206;-88
2023/01/19 15:23:05;;;;;;;6.37;3.87;;;1.70;41.50;;;;;;5033244;28;20254;-90
2023/01/19 15:25:32;;;;;;;6.60;3.60;;;1.60;41.50;;;;;;5033900;28;20203;-90
2023/01/19 15:28:00;;;;;;;5.20;3.23;;;1.60;41.50;;;;;;5275169;23;20304;-90
2023/01/19 15:33:04;;;;;;;4.83;3.70;;;1.60;43.50;;;;;;5315197;23;20242;-88
2023/01/19 15:35:31;;;;;;;7.33;3.23;;;1.60;41.50;;;;;;5032758;28;20198;-90
2023/01/19 15:37:58;;;;;;;6.17;3.67;;;1.60;41.50;;;;;;5034860;28;20203;-90
2023/01/19 15:40:25;;;;;;;4.50;3.20;;;1.50;43.80;;;;;;5035979;28;20211;-89
2023/01/19 15:42:52;;;;;;;6.60;3.40;;;1.50;42.80;;;;;;5026410;28;20215;-91
2023/01/19 15:45:34;;;;;;;5.53;3.60;;;1.50;42.30;;;;;;5028608;28;20265;-90
2023/01/19 15:48:02;;;;;;;5.67;3.20;;;1.50;41.40;;;;;;5024292;28;20199;-89
2023/01/19 15:50:31;;;;;;;9.93;4.10;;;1.50;41.40;;;;;;5028873;28;20210;-88
2023/01/19 15:52:58;;;;;;;5.50;4.27;;;1.60;41.50;;;;;;5033263;28;20202;-90
2023/01/19 15:55:25;;;;;;;5.43;3.90;;;1.50;41.50;;;;;;5029127;28;20201;-89
2023/01/19 15:57:53;;;;;;;5.23;4.30;;;1.40;43.60;;;;;;5032851;28;20202;-88
2023/01/19 16:05:27;;;;;;;6.17;3.90;;;1.40;46.90;;;;;;5033312;28;20627;-90
2023/01/19 16:07:55;;;;;;;7.67;4.33;;;1.40;49.70;;;;;;5026966;28;20248;-86
2023/01/19 16:10:22;;;;;;;6.40;4.37;;;1.30;48.20;;;;;;5023105;28;20210;-88
2023/01/19 16:12:49;;;;;;;9.63;4.73;;;1.30;49.50;;;;;;5019554;28;20233;-86
2023/01/19 16:15:17;;;;;;;8.47;4.33;;;1.20;49.80;;;;;;5031212;28;20180;-90
2023/01/19 16:20:19;;;;;;;5.60;4.10;;;1.20;51.70;;;;;;5446177;23;20254;-90
2023/01/19 16:22:46;;;;;;;7.20;4.57;;;1.20;50.30;;;;;;5389944;22;20244;-92
2023/01/19 16:25:15;;;;;;;7.93;4.50;;;1.30;50.00;;;;;;5046675;28;20203;-90
2023/01/19 16:32:51;;;;;;;5.87;4.37;;;1.20;54.20;;;;;;5006342;28;20235;-92
2023/01/19 16:35:17;;;;;;;7.93;5.00;;;1.20;51.00;;;;;;5418325;23;20429;-90
2023/01/19 16:40:22;;;;;;;6.30;4.13;;;1.20;49.90;;;;;;5130683;23;20247;-90
2023/01/19 16:42:56;;;;;;;6.77;4.93;;;1.30;49.90;;;;;;5954842;23;20205;-88
2023/01/19 16:45:23;;;;;;;6.27;4.50;;;1.20;51.00;;;;;;5614872;23;20300;-92
2023/01/19 16:55:51;;;;;;;6.83;4.47;;;1.00;52.50;;;;;;6107471;23;20181;-92
2023/01/19 17:11:19;;;;;;;6.90;4.40;;;1.20;49.40;;;;;;5471340;23;20234;-88
2023/01/19 17:31:55;;;;;;;7.77;4.63;;;1.00;53.60;;;;;;5172818;23;20287;-89
2023/01/19 17:37:12;;;;;;;6.37;4.33;;;0.90;52.90;;;;;;5043919;23;20230;-92
2023/01/19 17:50:13;;;;;;;8.87;4.47;;;1.10;51.70;;;;;;5399415;22;20246;-89
2023/01/19 17:52:40;;;;;;;10.67;4.63;;;1.00;52.20;;;;;;5036410;28;20210;-90
2023/01/19 17:57:43;;;;;;;5.87;4.20;;;0.80;54.60;;;;;;5340409;23;20773;-90
2023/01/19 18:00:10;;;;;;;7.97;4.80;;;0.80;54.00;;;;;;5087183;28;20201;-90
2023/01/19 18:02:38;;;;;;;6.17;4.23;;;0.70;52.60;;;;;;5079593;28;20189;-88
2023/01/19 19:07:10;;;;;;;10.63;5.60;;;1.00;52.20;;;;;;5784829;22;20229;-92
2023/01/19 19:09:37;;;;;;;6.97;4.37;;;1.00;53.20;;;;;;4984883;28;20204;-87
2023/01/19 19:12:04;;;;;;;10.33;5.10;;;1.10;50.00;;;;;;5113730;23;20203;-89
2023/01/19 19:14:32;;;;;;;9.07;4.70;;;1.00;51.20;;;;;;5354608;23;20234;-90
2023/01/19 19:19:32;;;;;;;6.63;4.53;;;0.90;53.80;;;;;;4997642;28;20273;-89
2023/01/19 19:22:00;;;;;;;7.17;5.10;;;1.00;52.20;;;;;;5060248;23;20223;-92
2023/01/19 19:40:00;;;;;;;8.23;4.43;;;0.80;51.50;;;;;;5201290;22;20249;-89
2023/01/19 19:45:03;;;;;;;8.00;5.07;;;0.80;53.60;;;;;;5058621;23;20231;-93
2023/01/19 19:50:00;;;;;;;8.30;5.10;;;0.70;55.10;;;;;;5336244;23;20232;-88
2023/01/19 20:00:17;;;;;;;8.23;4.70;;;0.70;57.00;;;;;;5947108;22;20335;-92
2023/01/19 20:02:43;;;;;;;6.60;4.77;;;0.80;55.50;;;;;;5030106;28;20228;-93
2023/01/19 20:07:53;;;;;;;10.80;5.27;;;0.80;54.90;;;;;;5032658;28;20194;-90
2023/01/19 20:10:20;;;;;;;7.13;5.00;;;0.80;54.10;;;;;;5025578;28;20306;-91
2023/01/19 20:12:47;;;;;;;10.93;6.00;;;0.80;54.40;;;;;;5041463;28;20273;-88
2023/01/19 20:15:16;;;;;;;8.90;6.07;;;1.00;53.90;;;;;;5034541;28;20258;-89
2023/01/19 20:17:42;;;;;;;8.20;6.00;;;1.10;52.80;;;;;;5032805;28;20271;-89
2023/01/19 20:20:11;;;;;;;10.83;5.20;;;1.10;52.90;;;;;;5032954;28;20333;-90
2023/01/19 20:22:38;;;;;;;7.03;5.10;;;1.10;52.30;;;;;;5013792;28;20766;-91
2023/01/19 20:25:06;;;;;;;9.80;5.90;;;1.10;53.60;;;;;;5020101;28;20229;-92
2023/01/19 20:27:33;;;;;;;7.97;5.43;;;1.10;53.70;;;;;;5015085;28;20207;-92
2023/01/19 20:30:00;;;;;;;10.60;5.90;;;1.10;55.00;;;;;;5016978;28;20207;-91
2023/01/19 20:32:29;;;;;;;9.50;5.70;;;0.90;55.70;;;;;;5349462;22;20274;-92
2023/01/19 20:34:56;;;;;;;9.30;5.77;;;0.80;60.00;;;;;;5057302;28;20206;-90
2023/01/19 20:37:23;;;;;;;11.80;5.93;;;0.70;62.70;;;;;;5053366;28;20214;-90
2023/01/19 20:39:50;;;;;;;9.13;5.60;;;0.60;61.80;;;;;;5050958;28;20220;-87
2023/01/19 20:42:17;;;;;;;9.00;6.17;;;0.60;62.30;;;;;;5056446;28;20206;-90
2023/01/19 20:44:43;;;;;;;8.83;6.00;;;0.50;64.40;;;;;;5059428;28;20225;-91
2023/01/19 20:47:10;;;;;;;14.10;6.13;;;0.50;65.00;;;;;;5056616;28;20210;-88
2023/01/19 20:49:54;;;;;;;9.97;6.83;;;0.60;65.10;;;;;;5024680;28;20233;-89
2023/01/19 20:52:21;;;;;;;11.13;7.57;;;0.80;62.00;;;;;;5055969;28;20205;-90
2023/01/19 20:54:48;;;;;;;12.60;7.83;;;0.80;61.00;;;;;;5057547;28;20185;-92
2023/01/19 20:57:14;;;;;;;11.90;7.63;;;0.70;60.40;;;;;;5063762;28;20193;-90
2023/01/19 20:59:41;;;;;;;11.63;8.17;;;0.70;65.20;;;;;;5065342;28;20208;-88
2023/01/19 21:02:13;;;;;;;10.33;7.20;;;0.60;63.60;;;;;;5622188;23;20227;-88
2023/01/19 21:04:39;;;;;;;13.50;7.97;;;0.60;65.10;;;;;;5145939;23;20228;-89
2023/01/19 21:07:08;;;;;;;14.23;8.40;;;0.50;61.60;;;;;;5051957;28;20218;-90
2023/01/19 21:09:35;;;;;;;11.87;7.70;;;0.40;64.90;;;;;;5044333;28;20205;-91
2023/01/19 21:12:01;;;;;;;12.17;7.13;;;0.30;64.70;;;;;;5048383;28;20270;-89
2023/01/19 21:14:28;;;;;;;13.97;7.50;;;0.30;64.70;;;;;;5046327;28;20202;-88
2023/01/19 21:16:57;;;;;;;10.77;6.60;;;0.20;65.00;;;;;;5045775;28;20222;-90